sensor_id;sensor_type;location;lat;lon;timestamp;temperature;humidity
43043;DHT22;28667;50.758;6.096;2022-11-15T00:01:51;10.90;99.90
43043;DHT22;28667;50.758;6.096;2022-11-15T00:04:35;10.90;99.90
43043;DHT22;28667;50.758;6.096;2022-11-15T00:07:19;10.90;99.90
43043;DHT22;28667;50.758;6.096;2022-11-15T00:10:04;10.90;99.90
43043;DHT22;28667;50.758;6.096;2022-11-15T00:12:48;11.00;99.90
43043;DHT22;28667;50.758;6.096;2022-11-15T00:15:37;11.00;99.90
43043;DHT22;28667;50.758;6.096;2022-11-15T00:18:22;11.00;99.90
43043;DHT22;28667;50.758;6.096;2022-11-15T00:21:11;11.00;99.90
43043;DHT22;28667;50.758;6.096;2022-11-15T00:23:55;11.00;99.90
43043;DHT22;28667;50.758;6.096;2022-11-15T00:26:39;11.00;99.90
43043;DHT22;28667;50.758;6.096;2022-11-15T00:29:23;11.00;99.90
43043;DHT22;28667;50.758;6.096;2022-11-15T00:32:07;11.00;99.90
43043;DHT22;28667;50.758;6.096;2022-11-15T00:34:52;11.00;99.90
43043;DHT22;28667;50.758;6.096;2022-11-15T00:37:36;11.00;99.90
43043;DHT22;28667;50.758;6.096;2022-11-15T00:40:20;11.00;99.90
43043;DHT22;28667;50.758;6.096;2022-11-15T00:43:04;11.00;99.90
43043;DHT22;28667;50.758;6.096;2022-11-15T00:45:48;11.00;99.90
43043;DHT22;28667;50.758;6.096;2022-11-15T00:48:32;11.00;99.90
43043;DHT22;28667;50.758;6.096;2022-11-15T00:51:16;10.90;99.90
43043;DHT22;28667;50.758;6.096;2022-11-15T00:54:01;10.90;99.90
43043;DHT22;28667;50.758;6.096;2022-11-15T00:56:44;11.00;99.90
43043;DHT22;28667;50.758;6.096;2022-11-15T00:59:29;10.90;99.90
43043;DHT22;28667;50.758;6.096;2022-11-15T01:02:13;10.90;99.90
43043;DHT22;28667;50.758;6.096;2022-11-15T01:04:57;10.90;99.90
43043;DHT22;28667;50.758;6.096;2022-11-15T01:07:41;10.80;99.90
43043;DHT22;28667;50.758;6.096;2022-11-15T01:10:25;10.80;99.90
43043;DHT22;28667;50.758;6.096;2022-11-15T01:13:10;10.80;99.90
43043;DHT22;28667;50.758;6.096;2022-11-15T01:15:54;10.80;99.90
43043;DHT22;28667;50.758;6.096;2022-11-15T01:18:39;10.80;99.90
43043;DHT22;28667;50.758;6.096;2022-11-15T01:21:23;10.80;99.90
43043;DHT22;28667;50.758;6.096;2022-11-15T01:24:08;10.80;99.90
43043;DHT22;28667;50.758;6.096;2022-11-15T01:26:55;10.90;99.90
43043;DHT22;28667;50.758;6.096;2022-11-15T01:29:40;10.80;99.90
43043;DHT22;28667;50.758;6.096;2022-11-15T01:32:24;10.80;99.90
43043;DHT22;28667;50.758;6.096;2022-11-15T01:35:08;10.80;99.90
43043;DHT22;28667;50.758;6.096;2022-11-15T01:37:52;10.80;99.90
43043;DHT22;28667;50.758;6.096;2022-11-15T01:40:36;10.70;99.90
43043;DHT22;28667;50.758;6.096;2022-11-15T01:49:13;10.50;99.90
43043;DHT22;28667;50.758;6.096;2022-11-15T01:52:00;10.40;99.90
43043;DHT22;28667;50.758;6.096;2022-11-15T01:54:46;10.30;99.90
43043;DHT22;28667;50.758;6.096;2022-11-15T01:57:31;10.20;99.90
43043;DHT22;28667;50.758;6.096;2022-11-15T02:00:16;10.10;99.90
43043;DHT22;28667;50.758;6.096;2022-11-15T02:03:01;10.10;99.90
43043;DHT22;28667;50.758;6.096;2022-11-15T02:05:46;10.00;99.90
43043;DHT22;28667;50.758;6.096;2022-11-15T02:08:30;10.00;99.90
43043;DHT22;28667;50.758;6.096;2022-11-15T02:11:14;9.90;99.90
43043;DHT22;28667;50.758;6.096;2022-11-15T02:13:59;9.90;99.90
43043;DHT22;28667;50.758;6.096;2022-11-15T02:29:01;9.90;99.90
43043;DHT22;28667;50.758;6.096;2022-11-15T02:31:53;10.00;99.90
43043;DHT22;28667;50.758;6.096;2022-11-15T02:35:07;10.00;99.90
43043;DHT22;28667;50.758;6.096;2022-11-15T02:44:17;10.10;99.90
43043;DHT22;28667;50.758;6.096;2022-11-15T02:47:06;10.10;99.90
43043;DHT22;28667;50.758;6.096;2022-11-15T02:50:03;10.20;99.90
43043;DHT22;28667;50.758;6.096;2022-11-15T02:52:51;10.30;99.90
43043;DHT22;28667;50.758;6.096;2022-11-15T02:55:45;10.30;99.90
43043;DHT22;28667;50.758;6.096;2022-11-15T03:07:50;10.40;99.90
43043;DHT22;28667;50.758;6.096;2022-11-15T03:11:15;10.40;99.90
43043;DHT22;28667;50.758;6.096;2022-11-15T03:13:57;10.40;99.90
43043;DHT22;28667;50.758;6.096;2022-11-15T03:19:47;10.40;99.90
43043;DHT22;28667;50.758;6.096;2022-11-15T03:22:38;10.50;99.90
43043;DHT22;28667;50.758;6.096;2022-11-15T03:25:26;10.50;99.90
43043;DHT22;28667;50.758;6.096;2022-11-15T03:28:18;10.50;99.90
43043;DHT22;28667;50.758;6.096;2022-11-15T03:31:04;10.50;99.90
43043;DHT22;28667;50.758;6.096;2022-11-15T03:34:13;10.50;99.90
43043;DHT22;28667;50.758;6.096;2022-11-15T03:36:58;10.50;99.90
43043;DHT22;28667;50.758;6.096;2022-11-15T03:39:43;10.60;99.90
43043;DHT22;28667;50.758;6.096;2022-11-15T03:45:40;10.50;99.90
43043;DHT22;28667;50.758;6.096;2022-11-15T03:48:41;10.50;99.90
43043;DHT22;28667;50.758;6.096;2022-11-15T03:51:26;10.50;99.90
43043;DHT22;28667;50.758;6.096;2022-11-15T03:54:12;10.40;99.90
43043;DHT22;28667;50.758;6.096;2022-11-15T03:56:57;10.40;99.90
43043;DHT22;28667;50.758;6.096;2022-11-15T03:59:41;10.30;99.90
43043;DHT22;28667;50.758;6.096;2022-11-15T04:02:25;10.30;99.90
43043;DHT22;28667;50.758;6.096;2022-11-15T04:05:10;10.20;99.90
43043;DHT22;28667;50.758;6.096;2022-11-15T04:07:57;10.20;99.90
43043;DHT22;28667;50.758;6.096;2022-11-15T04:10:42;10.10;99.90
43043;DHT22;28667;50.758;6.096;2022-11-15T04:13:26;10.10;99.90
43043;DHT22;28667;50.758;6.096;2022-11-15T04:16:10;10.10;99.90
43043;DHT22;28667;50.758;6.096;2022-11-15T04:18:55;10.10;99.90
43043;DHT22;28667;50.758;6.096;2022-11-15T04:21:58;10.10;99.90
43043;DHT22;28667;50.758;6.096;2022-11-15T04:25:01;10.10;99.90
43043;DHT22;28667;50.758;6.096;2022-11-15T04:27:45;10.20;99.90
43043;DHT22;28667;50.758;6.096;2022-11-15T04:30:29;10.20;99.90
43043;DHT22;28667;50.758;6.096;2022-11-15T04:33:13;10.20;99.90
43043;DHT22;28667;50.758;6.096;2022-11-15T04:35:58;10.30;99.90
43043;DHT22;28667;50.758;6.096;2022-11-15T04:39:01;10.30;99.90
43043;DHT22;28667;50.758;6.096;2022-11-15T04:41:45;10.30;99.90
43043;DHT22;28667;50.758;6.096;2022-11-15T04:44:29;10.30;99.90
43043;DHT22;28667;50.758;6.096;2022-11-15T04:47:13;10.40;99.90
43043;DHT22;28667;50.758;6.096;2022-11-15T04:49:57;10.40;99.90
43043;DHT22;28667;50.758;6.096;2022-11-15T04:52:51;10.40;99.90
43043;DHT22;28667;50.758;6.096;2022-11-15T04:55:36;10.40;99.90
43043;DHT22;28667;50.758;6.096;2022-11-15T04:58:20;10.30;99.90
43043;DHT22;28667;50.758;6.096;2022-11-15T05:01:12;10.30;99.90
43043;DHT22;28667;50.758;6.096;2022-11-15T05:03:58;10.30;99.90
43043;DHT22;28667;50.758;6.096;2022-11-15T05:07:01;10.30;99.90
43043;DHT22;28667;50.758;6.096;2022-11-15T05:09:48;10.30;99.90
43043;DHT22;28667;50.758;6.096;2022-11-15T05:12:32;10.30;99.90
43043;DHT22;28667;50.758;6.096;2022-11-15T05:15:16;10.30;99.90
43043;DHT22;28667;50.758;6.096;2022-11-15T05:18:01;10.20;99.90
43043;DHT22;28667;50.758;6.096;2022-11-15T05:20:45;10.20;99.90
43043;DHT22;28667;50.758;6.096;2022-11-15T05:23:29;10.20;99.90
43043;DHT22;28667;50.758;6.096;2022-11-15T05:26:15;10.20;99.90
43043;DHT22;28667;50.758;6.096;2022-11-15T05:29:00;10.20;99.90
43043;DHT22;28667;50.758;6.096;2022-11-15T05:31:44;10.20;99.90
43043;DHT22;28667;50.758;6.096;2022-11-15T05:34:29;10.20;99.90
43043;DHT22;28667;50.758;6.096;2022-11-15T05:37:16;10.30;99.90
43043;DHT22;28667;50.758;6.096;2022-11-15T05:40:01;10.30;99.90
43043;DHT22;28667;50.758;6.096;2022-11-15T05:42:46;10.30;99.90
43043;DHT22;28667;50.758;6.096;2022-11-15T05:45:32;10.30;99.90
43043;DHT22;28667;50.758;6.096;2022-11-15T05:48:17;10.30;99.90
43043;DHT22;28667;50.758;6.096;2022-11-15T05:51:03;10.40;99.90
43043;DHT22;28667;50.758;6.096;2022-11-15T05:53:50;10.40;99.90
43043;DHT22;28667;50.758;6.096;2022-11-15T05:56:35;10.30;99.90
43043;DHT22;28667;50.758;6.096;2022-11-15T05:59:19;10.40;99.90
43043;DHT22;28667;50.758;6.096;2022-11-15T06:02:03;10.40;99.90
43043;DHT22;28667;50.758;6.096;2022-11-15T06:04:47;10.40;99.90
43043;DHT22;28667;50.758;6.096;2022-11-15T06:07:32;10.40;99.90
43043;DHT22;28667;50.758;6.096;2022-11-15T06:10:16;10.30;99.90
43043;DHT22;28667;50.758;6.096;2022-11-15T06:13:03;10.30;99.90
43043;DHT22;28667;50.758;6.096;2022-11-15T06:15:47;10.30;99.90
43043;DHT22;28667;50.758;6.096;2022-11-15T06:18:33;10.20;99.90
43043;DHT22;28667;50.758;6.096;2022-11-15T06:21:17;10.20;99.90
43043;DHT22;28667;50.758;6.096;2022-11-15T06:24:02;10.20;99.90
43043;DHT22;28667;50.758;6.096;2022-11-15T06:26:46;10.20;99.90
43043;DHT22;28667;50.758;6.096;2022-11-15T06:29:31;10.20;99.90
43043;DHT22;28667;50.758;6.096;2022-11-15T06:32:15;10.10;99.90
43043;DHT22;28667;50.758;6.096;2022-11-15T06:34:59;10.10;99.90
43043;DHT22;28667;50.758;6.096;2022-11-15T06:37:44;10.00;99.90
43043;DHT22;28667;50.758;6.096;2022-11-15T06:40:28;10.00;99.90
43043;DHT22;28667;50.758;6.096;2022-11-15T06:43:12;9.90;99.90
43043;DHT22;28667;50.758;6.096;2022-11-15T06:45:58;9.90;99.90
43043;DHT22;28667;50.758;6.096;2022-11-15T06:48:43;9.80;99.90
43043;DHT22;28667;50.758;6.096;2022-11-15T06:51:27;9.70;99.90
43043;DHT22;28667;50.758;6.096;2022-11-15T06:54:11;9.70;99.90
43043;DHT22;28667;50.758;6.096;2022-11-15T06:56:55;9.70;99.90
43043;DHT22;28667;50.758;6.096;2022-11-15T06:59:39;9.60;99.90
43043;DHT22;28667;50.758;6.096;2022-11-15T07:02:23;9.60;99.90
43043;DHT22;28667;50.758;6.096;2022-11-15T07:05:08;9.60;99.90
43043;DHT22;28667;50.758;6.096;2022-11-15T07:07:53;9.60;99.90
43043;DHT22;28667;50.758;6.096;2022-11-15T07:10:38;9.50;99.90
43043;DHT22;28667;50.758;6.096;2022-11-15T07:13:25;9.50;99.90
43043;DHT22;28667;50.758;6.096;2022-11-15T07:16:10;9.50;99.90
43043;DHT22;28667;50.758;6.096;2022-11-15T07:18:55;9.40;99.90
43043;DHT22;28667;50.758;6.096;2022-11-15T07:21:39;9.40;99.90
43043;DHT22;28667;50.758;6.096;2022-11-15T07:24:24;9.30;99.90
43043;DHT22;28667;50.758;6.096;2022-11-15T07:27:08;9.40;99.90
43043;DHT22;28667;50.758;6.096;2022-11-15T07:29:52;9.40;99.90
43043;DHT22;28667;50.758;6.096;2022-11-15T07:32:36;9.30;99.90
43043;DHT22;28667;50.758;6.096;2022-11-15T07:35:20;9.30;99.90
43043;DHT22;28667;50.758;6.096;2022-11-15T07:38:04;9.30;99.90
43043;DHT22;28667;50.758;6.096;2022-11-15T07:40:56;9.30;99.90
43043;DHT22;28667;50.758;6.096;2022-11-15T07:43:41;9.30;99.90
43043;DHT22;28667;50.758;6.096;2022-11-15T07:46:25;9.20;99.90
43043;DHT22;28667;50.758;6.096;2022-11-15T07:49:09;9.20;99.90
43043;DHT22;28667;50.758;6.096;2022-11-15T07:51:53;9.20;99.90
43043;DHT22;28667;50.758;6.096;2022-11-15T07:54:38;9.30;99.90
43043;DHT22;28667;50.758;6.096;2022-11-15T07:57:22;9.20;99.90
43043;DHT22;28667;50.758;6.096;2022-11-15T08:00:07;9.20;99.90
43043;DHT22;28667;50.758;6.096;2022-11-15T08:02:51;9.20;99.90
43043;DHT22;28667;50.758;6.096;2022-11-15T08:05:37;9.20;99.90
43043;DHT22;28667;50.758;6.096;2022-11-15T08:08:21;9.20;99.90
43043;DHT22;28667;50.758;6.096;2022-11-15T08:11:05;9.30;99.90
43043;DHT22;28667;50.758;6.096;2022-11-15T08:13:49;9.30;99.90
43043;DHT22;28667;50.758;6.096;2022-11-15T08:16:34;9.30;99.90
43043;DHT22;28667;50.758;6.096;2022-11-15T08:19:18;9.30;99.90
43043;DHT22;28667;50.758;6.096;2022-11-15T08:22:02;9.30;99.90
43043;DHT22;28667;50.758;6.096;2022-11-15T08:24:46;9.30;99.90
43043;DHT22;28667;50.758;6.096;2022-11-15T08:27:30;9.30;99.90
43043;DHT22;28667;50.758;6.096;2022-11-15T08:30:15;9.40;99.90
43043;DHT22;28667;50.758;6.096;2022-11-15T08:32:59;9.30;99.90
43043;DHT22;28667;50.758;6.096;2022-11-15T08:35:44;9.40;99.90
43043;DHT22;28667;50.758;6.096;2022-11-15T08:38:29;9.30;99.90
43043;DHT22;28667;50.758;6.096;2022-11-15T08:41:24;9.40;99.90
43043;DHT22;28667;50.758;6.096;2022-11-15T08:44:10;9.40;99.90
43043;DHT22;28667;50.758;6.096;2022-11-15T08:46:54;9.40;99.90
43043;DHT22;28667;50.758;6.096;2022-11-15T08:49:38;9.40;99.90
43043;DHT22;28667;50.758;6.096;2022-11-15T08:52:22;9.50;99.90
43043;DHT22;28667;50.758;6.096;2022-11-15T08:55:07;9.50;99.90
43043;DHT22;28667;50.758;6.096;2022-11-15T08:57:51;9.50;99.90
43043;DHT22;28667;50.758;6.096;2022-11-15T09:00:35;9.50;99.90
43043;DHT22;28667;50.758;6.096;2022-11-15T09:03:20;9.50;99.90
43043;DHT22;28667;50.758;6.096;2022-11-15T09:06:04;9.60;99.90
43043;DHT22;28667;50.758;6.096;2022-11-15T09:08:48;9.60;99.90
43043;DHT22;28667;50.758;6.096;2022-11-15T09:11:33;9.60;99.90
43043;DHT22;28667;50.758;6.096;2022-11-15T09:14:17;9.70;99.90
43043;DHT22;28667;50.758;6.096;2022-11-15T09:17:02;9.70;99.90
43043;DHT22;28667;50.758;6.096;2022-11-15T09:19:46;9.70;99.90
43043;DHT22;28667;50.758;6.096;2022-11-15T09:22:30;9.80;99.90
43043;DHT22;28667;50.758;6.096;2022-11-15T09:25:14;9.80;99.90
43043;DHT22;28667;50.758;6.096;2022-11-15T09:27:59;9.80;99.90
43043;DHT22;28667;50.758;6.096;2022-11-15T09:30:43;9.80;99.90
43043;DHT22;28667;50.758;6.096;2022-11-15T09:33:28;9.90;99.90
43043;DHT22;28667;50.758;6.096;2022-11-15T09:36:12;9.90;99.90
43043;DHT22;28667;50.758;6.096;2022-11-15T09:38:58;9.90;99.90
43043;DHT22;28667;50.758;6.096;2022-11-15T09:41:57;9.90;99.90
43043;DHT22;28667;50.758;6.096;2022-11-15T09:50:46;10.00;99.90
43043;DHT22;28667;50.758;6.096;2022-11-15T09:53:22;10.10;99.90
43043;DHT22;28667;50.758;6.096;2022-11-15T09:56:05;10.10;99.90
43043;DHT22;28667;50.758;6.096;2022-11-15T10:04:25;10.20;99.90
43043;DHT22;28667;50.758;6.096;2022-11-15T10:09:50;10.30;99.90
43043;DHT22;28667;50.758;6.096;2022-11-15T10:12:17;10.40;99.90
43043;DHT22;28667;50.758;6.096;2022-11-15T10:14:43;10.40;99.90
43043;DHT22;28667;50.758;6.096;2022-11-15T10:20:21;10.50;99.90
43043;DHT22;28667;50.758;6.096;2022-11-15T10:25:23;10.60;99.90
43043;DHT22;28667;50.758;6.096;2022-11-15T10:28:14;10.60;99.90
43043;DHT22;28667;50.758;6.096;2022-11-15T10:30:46;10.70;99.90
43043;DHT22;28667;50.758;6.096;2022-11-15T10:41:18;10.90;99.90
43043;DHT22;28667;50.758;6.096;2022-11-15T10:43:45;10.90;99.90
43043;DHT22;28667;50.758;6.096;2022-11-15T10:46:21;11.00;99.90
43043;DHT22;28667;50.758;6.096;2022-11-15T10:48:47;11.10;99.90
43043;DHT22;28667;50.758;6.096;2022-11-15T10:51:26;11.10;99.90
43043;DHT22;28667;50.758;6.096;2022-11-15T10:54:00;11.30;99.90
43043;DHT22;28667;50.758;6.096;2022-11-15T10:56:26;11.40;99.90
43043;DHT22;28667;50.758;6.096;2022-11-15T10:58:58;11.40;99.90
43043;DHT22;28667;50.758;6.096;2022-11-15T11:01:26;11.50;99.90
43043;DHT22;28667;50.758;6.096;2022-11-15T11:04:08;11.50;99.90
43043;DHT22;28667;50.758;6.096;2022-11-15T11:09:31;11.60;99.90
43043;DHT22;28667;50.758;6.096;2022-11-15T11:11:58;11.70;99.90
43043;DHT22;28667;50.758;6.096;2022-11-15T11:14:28;11.70;99.90
43043;DHT22;28667;50.758;6.096;2022-11-15T11:25:24;11.90;99.90
43043;DHT22;28667;50.758;6.096;2022-11-15T11:30:55;12.10;99.90
43043;DHT22;28667;50.758;6.096;2022-11-15T11:33:44;12.20;99.90
43043;DHT22;28667;50.758;6.096;2022-11-15T11:42:51;12.40;99.90
43043;DHT22;28667;50.758;6.096;2022-11-15T11:48:13;12.40;99.90
43043;DHT22;28667;50.758;6.096;2022-11-15T11:50:41;12.50;99.90
43043;DHT22;28667;50.758;6.096;2022-11-15T11:53:22;12.60;99.90
43043;DHT22;28667;50.758;6.096;2022-11-15T11:55:55;12.60;99.90
43043;DHT22;28667;50.758;6.096;2022-11-15T12:01:02;12.70;99.90
43043;DHT22;28667;50.758;6.096;2022-11-15T12:09:01;12.90;99.90
43043;DHT22;28667;50.758;6.096;2022-11-15T12:12:02;12.90;99.90
43043;DHT22;28667;50.758;6.096;2022-11-15T12:17:28;12.90;99.90
43043;DHT22;28667;50.758;6.096;2022-11-15T12:19:59;12.90;99.90
43043;DHT22;28667;50.758;6.096;2022-11-15T12:30:50;12.80;99.90
43043;DHT22;28667;50.758;6.096;2022-11-15T12:36:04;13.00;99.90
43043;DHT22;28667;50.758;6.096;2022-11-15T12:41:20;13.10;99.90
43043;DHT22;28667;50.758;6.096;2022-11-15T12:43:47;13.20;99.90
43043;DHT22;28667;50.758;6.096;2022-11-15T13:00:01;13.60;99.90
43043;DHT22;28667;50.758;6.096;2022-11-15T13:02:48;13.60;99.90
43043;DHT22;28667;50.758;6.096;2022-11-15T13:15:53;13.60;99.90
43043;DHT22;28667;50.758;6.096;2022-11-15T13:18:36;13.70;99.90
43043;DHT22;28667;50.758;6.096;2022-11-15T13:21:04;13.70;99.90
43043;DHT22;28667;50.758;6.096;2022-11-15T13:23:54;13.70;99.90
43043;DHT22;28667;50.758;6.096;2022-11-15T13:26:21;13.80;99.90
43043;DHT22;28667;50.758;6.096;2022-11-15T13:28:51;13.80;99.90
43043;DHT22;28667;50.758;6.096;2022-11-15T13:31:36;13.80;99.90
43043;DHT22;28667;50.758;6.096;2022-11-15T13:34:32;13.80;99.90
43043;DHT22;28667;50.758;6.096;2022-11-15T13:37:02;13.70;99.90
43043;DHT22;28667;50.758;6.096;2022-11-15T13:39:33;13.70;99.90
43043;DHT22;28667;50.758;6.096;2022-11-15T13:42:00;13.60;99.90
43043;DHT22;28667;50.758;6.096;2022-11-15T13:44:29;13.50;99.90
43043;DHT22;28667;50.758;6.096;2022-11-15T13:47:13;13.40;99.90
43043;DHT22;28667;50.758;6.096;2022-11-15T13:49:39;13.40;99.90
43043;DHT22;28667;50.758;6.096;2022-11-15T13:52:07;13.30;99.90
43043;DHT22;28667;50.758;6.096;2022-11-15T13:54:42;13.30;99.90
43043;DHT22;28667;50.758;6.096;2022-11-15T13:57:24;13.30;99.90
43043;DHT22;28667;50.758;6.096;2022-11-15T13:59:51;13.30;99.90
43043;DHT22;28667;50.758;6.096;2022-11-15T14:02:19;13.30;99.90
43043;DHT22;28667;50.758;6.096;2022-11-15T14:07:39;13.30;99.90
43043;DHT22;28667;50.758;6.096;2022-11-15T14:10:27;13.30;99.90
43043;DHT22;28667;50.758;6.096;2022-11-15T14:12:54;13.20;99.90
43043;DHT22;28667;50.758;6.096;2022-11-15T14:17:51;13.20;99.90
43043;DHT22;28667;50.758;6.096;2022-11-15T14:20:38;13.20;99.90
43043;DHT22;28667;50.758;6.096;2022-11-15T14:25:58;13.20;99.90
43043;DHT22;28667;50.758;6.096;2022-11-15T14:30:56;13.10;99.90
43043;DHT22;28667;50.758;6.096;2022-11-15T14:35:57;13.10;99.90
43043;DHT22;28667;50.758;6.096;2022-11-15T14:38:24;13.00;99.90
43043;DHT22;28667;50.758;6.096;2022-11-15T14:40:50;13.00;99.90
43043;DHT22;28667;50.758;6.096;2022-11-15T14:43:16;12.90;99.90
43043;DHT22;28667;50.758;6.096;2022-11-15T14:45:42;12.90;99.90
43043;DHT22;28667;50.758;6.096;2022-11-15T14:48:08;12.80;99.90
43043;DHT22;28667;50.758;6.096;2022-11-15T14:50:34;12.80;99.90
43043;DHT22;28667;50.758;6.096;2022-11-15T14:53:00;12.70;99.90
43043;DHT22;28667;50.758;6.096;2022-11-15T14:55:31;12.70;99.90
43043;DHT22;28667;50.758;6.096;2022-11-15T14:57:58;12.70;99.90
43043;DHT22;28667;50.758;6.096;2022-11-15T15:00:24;12.60;99.90
43043;DHT22;28667;50.758;6.096;2022-11-15T15:02:53;12.60;99.90
43043;DHT22;28667;50.758;6.096;2022-11-15T15:05:22;12.60;99.90
43043;DHT22;28667;50.758;6.096;2022-11-15T15:07:49;12.60;99.90
43043;DHT22;28667;50.758;6.096;2022-11-15T15:10:16;12.60;99.90
43043;DHT22;28667;50.758;6.096;2022-11-15T15:12:42;12.50;99.90
43043;DHT22;28667;50.758;6.096;2022-11-15T15:15:16;12.50;99.90
43043;DHT22;28667;50.758;6.096;2022-11-15T15:17:43;12.50;99.90
43043;DHT22;28667;50.758;6.096;2022-11-15T15:20:10;12.50;99.90
43043;DHT22;28667;50.758;6.096;2022-11-15T15:22:36;12.40;99.90
43043;DHT22;28667;50.758;6.096;2022-11-15T15:25:02;12.40;99.90
43043;DHT22;28667;50.758;6.096;2022-11-15T15:27:29;12.40;99.90
43043;DHT22;28667;50.758;6.096;2022-11-15T15:29:55;12.40;99.90
43043;DHT22;28667;50.758;6.096;2022-11-15T15:32:21;12.40;99.90
43043;DHT22;28667;50.758;6.096;2022-11-15T15:34:47;12.30;99.90
43043;DHT22;28667;50.758;6.096;2022-11-15T15:39:41;12.40;99.90
43043;DHT22;28667;50.758;6.096;2022-11-15T15:42:07;12.40;99.90
43043;DHT22;28667;50.758;6.096;2022-11-15T15:44:33;12.40;99.90
43043;DHT22;28667;50.758;6.096;2022-11-15T15:46:58;12.40;99.90
43043;DHT22;28667;50.758;6.096;2022-11-15T15:49:24;12.40;99.90
43043;DHT22;28667;50.758;6.096;2022-11-15T15:51:50;12.40;99.90
43043;DHT22;28667;50.758;6.096;2022-11-15T15:54:16;12.40;99.90
43043;DHT22;28667;50.758;6.096;2022-11-15T15:56:41;12.40;99.90
43043;DHT22;28667;50.758;6.096;2022-11-15T15:59:07;12.40;99.90
43043;DHT22;28667;50.758;6.096;2022-11-15T16:01:33;12.40;99.90
43043;DHT22;28667;50.758;6.096;2022-11-15T16:03:58;12.40;99.90
43043;DHT22;28667;50.758;6.096;2022-11-15T16:06:44;12.40;99.90
43043;DHT22;28667;50.758;6.096;2022-11-15T16:09:15;12.30;99.90
43043;DHT22;28667;50.758;6.096;2022-11-15T16:11:41;12.30;99.90
43043;DHT22;28667;50.758;6.096;2022-11-15T16:14:08;12.30;99.90
43043;DHT22;28667;50.758;6.096;2022-11-15T16:16:34;12.30;99.90
43043;DHT22;28667;50.758;6.096;2022-11-15T16:19:01;12.30;99.90
43043;DHT22;28667;50.758;6.096;2022-11-15T16:21:27;12.30;99.90
43043;DHT22;28667;50.758;6.096;2022-11-15T16:23:53;12.20;99.90
43043;DHT22;28667;50.758;6.096;2022-11-15T16:26:27;12.30;99.90
43043;DHT22;28667;50.758;6.096;2022-11-15T16:28:53;12.20;99.90
43043;DHT22;28667;50.758;6.096;2022-11-15T16:31:19;12.20;99.90
43043;DHT22;28667;50.758;6.096;2022-11-15T16:33:47;12.20;99.90
43043;DHT22;28667;50.758;6.096;2022-11-15T16:36:24;12.20;99.90
43043;DHT22;28667;50.758;6.096;2022-11-15T16:38:51;12.10;99.90
43043;DHT22;28667;50.758;6.096;2022-11-15T16:41:18;12.10;99.90
43043;DHT22;28667;50.758;6.096;2022-11-15T16:43:48;12.00;99.90
43043;DHT22;28667;50.758;6.096;2022-11-15T16:46:19;12.00;99.90
43043;DHT22;28667;50.758;6.096;2022-11-15T16:48:46;11.90;99.90
43043;DHT22;28667;50.758;6.096;2022-11-15T16:51:13;11.90;99.90
43043;DHT22;28667;50.758;6.096;2022-11-15T16:53:39;11.90;99.90
43043;DHT22;28667;50.758;6.096;2022-11-15T16:56:26;11.80;99.90
43043;DHT22;28667;50.758;6.096;2022-11-15T16:58:56;11.80;99.90
43043;DHT22;28667;50.758;6.096;2022-11-15T17:01:36;11.70;99.90
43043;DHT22;28667;50.758;6.096;2022-11-15T17:04:11;11.70;99.90
43043;DHT22;28667;50.758;6.096;2022-11-15T17:06:39;11.70;99.90
43043;DHT22;28667;50.758;6.096;2022-11-15T17:09:06;11.70;99.90
43043;DHT22;28667;50.758;6.096;2022-11-15T17:11:35;11.70;99.90
43043;DHT22;28667;50.758;6.096;2022-11-15T17:14:01;11.60;99.90
43043;DHT22;28667;50.758;6.096;2022-11-15T17:16:27;11.60;99.90
43043;DHT22;28667;50.758;6.096;2022-11-15T17:18:52;11.60;99.90
43043;DHT22;28667;50.758;6.096;2022-11-15T17:21:20;11.60;99.90
43043;DHT22;28667;50.758;6.096;2022-11-15T17:23:46;11.60;99.90
43043;DHT22;28667;50.758;6.096;2022-11-15T17:26:13;11.60;99.90
43043;DHT22;28667;50.758;6.096;2022-11-15T17:28:40;11.50;99.90
43043;DHT22;28667;50.758;6.096;2022-11-15T17:31:07;11.50;99.90
43043;DHT22;28667;50.758;6.096;2022-11-15T17:33:33;11.50;99.90
43043;DHT22;28667;50.758;6.096;2022-11-15T17:36:01;11.50;99.90
43043;DHT22;28667;50.758;6.096;2022-11-15T17:38:27;11.50;99.90
43043;DHT22;28667;50.758;6.096;2022-11-15T17:41:14;11.50;99.90
43043;DHT22;28667;50.758;6.096;2022-11-15T17:43:40;11.50;99.90
43043;DHT22;28667;50.758;6.096;2022-11-15T17:46:10;11.50;99.90
43043;DHT22;28667;50.758;6.096;2022-11-15T17:48:36;11.50;99.90
43043;DHT22;28667;50.758;6.096;2022-11-15T17:51:04;11.50;99.90
43043;DHT22;28667;50.758;6.096;2022-11-15T17:53:35;11.50;99.90
43043;DHT22;28667;50.758;6.096;2022-11-15T17:56:07;11.50;99.90
43043;DHT22;28667;50.758;6.096;2022-11-15T17:58:33;11.40;99.90
43043;DHT22;28667;50.758;6.096;2022-11-15T18:01:22;11.40;99.90
43043;DHT22;28667;50.758;6.096;2022-11-15T18:03:49;11.50;99.90
43043;DHT22;28667;50.758;6.096;2022-11-15T18:06:15;11.40;99.90
43043;DHT22;28667;50.758;6.096;2022-11-15T18:08:43;11.40;99.90
43043;DHT22;28667;50.758;6.096;2022-11-15T18:11:20;11.40;99.90
43043;DHT22;28667;50.758;6.096;2022-11-15T18:13:48;11.40;99.90
43043;DHT22;28667;50.758;6.096;2022-11-15T18:16:17;11.40;99.90
43043;DHT22;28667;50.758;6.096;2022-11-15T18:18:43;11.40;99.90
43043;DHT22;28667;50.758;6.096;2022-11-15T18:21:12;11.40;99.90
43043;DHT22;28667;50.758;6.096;2022-11-15T18:23:39;11.40;99.90
43043;DHT22;28667;50.758;6.096;2022-11-15T18:26:06;11.40;99.90
43043;DHT22;28667;50.758;6.096;2022-11-15T18:28:34;11.50;99.90
43043;DHT22;28667;50.758;6.096;2022-11-15T18:31:01;11.50;99.90
43043;DHT22;28667;50.758;6.096;2022-11-15T18:33:29;11.50;99.90
43043;DHT22;28667;50.758;6.096;2022-11-15T18:36:02;11.50;99.90
43043;DHT22;28667;50.758;6.096;2022-11-15T18:38:28;11.50;99.90
43043;DHT22;28667;50.758;6.096;2022-11-15T18:41:15;11.50;99.90
43043;DHT22;28667;50.758;6.096;2022-11-15T18:43:54;11.50;99.90
43043;DHT22;28667;50.758;6.096;2022-11-15T18:46:22;11.60;99.90
43043;DHT22;28667;50.758;6.096;2022-11-15T18:48:50;11.50;99.90
43043;DHT22;28667;50.758;6.096;2022-11-15T18:51:21;11.50;99.90
43043;DHT22;28667;50.758;6.096;2022-11-15T18:53:48;11.50;99.90
43043;DHT22;28667;50.758;6.096;2022-11-15T18:56:18;11.60;99.90
43043;DHT22;28667;50.758;6.096;2022-11-15T18:58:46;11.60;99.90
43043;DHT22;28667;50.758;6.096;2022-11-15T19:01:18;11.60;99.90
43043;DHT22;28667;50.758;6.096;2022-11-15T19:03:46;11.50;99.90
43043;DHT22;28667;50.758;6.096;2022-11-15T19:06:17;11.60;99.90
43043;DHT22;28667;50.758;6.096;2022-11-15T19:08:44;11.50;99.90
43043;DHT22;28667;50.758;6.096;2022-11-15T19:11:12;11.50;99.90
43043;DHT22;28667;50.758;6.096;2022-11-15T19:13:38;11.60;99.90
43043;DHT22;28667;50.758;6.096;2022-11-15T19:16:05;11.60;99.90
43043;DHT22;28667;50.758;6.096;2022-11-15T19:18:32;11.60;99.90
43043;DHT22;28667;50.758;6.096;2022-11-15T19:21:06;11.60;99.90